createdAt,value
2018-05-15T00:01:08.592Z,94854
2018-05-15T00:06:36.818Z,94841
2018-05-15T00:12:04.986Z,94842
2018-05-15T00:17:39.140Z,94841
2018-05-15T00:23:11.476Z,94837
2018-05-15T00:28:40.510Z,94830
2018-05-15T00:34:12.537Z,94834
2018-05-15T00:39:40.695Z,94837
2018-05-15T00:45:08.865Z,94842
2018-05-15T00:50:37.093Z,94836
2018-05-15T00:56:05.248Z,94846
2018-05-15T01:01:34.307Z,94835
2018-05-15T01:07:02.468Z,94838
2018-05-15T01:12:31.392Z,94842
2018-05-15T01:18:00.275Z,94835
2018-05-15T01:23:28.452Z,94836
2018-05-15T01:28:57.353Z,94839
2018-05-15T01:34:25.566Z,94840
2018-05-15T01:39:54.442Z,94844
2018-05-15T01:45:22.573Z,94844
2018-05-15T01:50:51.483Z,94850
2018-05-15T01:56:19.632Z,94862
2018-05-15T02:01:48.544Z,94855
2018-05-15T02:07:16.675Z,94858
2018-05-15T02:12:44.824Z,94866
2018-05-15T02:18:12.966Z,94863
2018-05-15T02:23:41.145Z,94855
2018-05-15T02:29:10.074Z,94850
2018-05-15T02:34:39.007Z,94861
2018-05-15T02:40:07.939Z,94852
2018-05-15T02:45:36.132Z,94865
2018-05-15T02:51:04.304Z,94870
2018-05-15T02:56:33.254Z,94872
2018-05-15T03:02:01.439Z,94863
2018-05-15T03:07:34.343Z,94868
2018-05-15T03:13:02.556Z,94872
2018-05-15T03:18:30.903Z,94875
2018-05-15T03:23:59.036Z,94874
2018-05-15T03:29:27.969Z,94881
2018-05-15T03:34:56.116Z,94890
2018-05-15T03:40:24.269Z,94895
2018-05-15T03:45:52.414Z,94905
2018-05-15T03:51:28.715Z,94912
2018-05-15T03:56:56.904Z,94916
2018-05-15T04:08:41.855Z,94935
2018-05-15T04:14:09.937Z,94936
2018-05-15T04:19:38.149Z,94934
2018-05-15T04:25:06.342Z,94938
2018-05-15T04:30:34.502Z,94946
2018-05-15T04:36:04.655Z,94941
2018-05-15T04:41:33.985Z,94946
2018-05-15T04:47:02.161Z,94966
2018-05-15T04:52:31.078Z,94956
2018-05-15T04:57:59.246Z,94967
2018-05-15T05:03:27.367Z,94977
2018-05-15T05:08:55.516Z,94972
2018-05-15T05:14:23.681Z,94976
2018-05-15T05:19:52.581Z,94981
2018-05-15T05:25:20.737Z,94986
2018-05-15T05:30:48.880Z,94990
2018-05-15T05:36:17.021Z,94990
2018-05-15T05:41:45.160Z,94994
2018-05-15T05:47:13.306Z,94994
2018-05-15T05:52:41.490Z,95006
2018-05-15T05:58:09.640Z,95001
2018-05-15T06:03:37.877Z,95006
2018-05-15T06:09:06.800Z,95015
2018-05-15T06:14:34.972Z,95019
2018-05-15T06:20:03.137Z,95028
2018-05-15T06:25:31.287Z,95035
2018-05-15T06:31:00.224Z,95037
2018-05-15T06:36:29.132Z,95042
2018-05-15T06:41:57.289Z,95052
2018-05-15T06:47:25.437Z,95054
2018-05-15T06:52:53.576Z,95055
2018-05-15T06:58:21.735Z,95064
2018-05-15T07:03:50.659Z,95054
2018-05-15T07:09:18.817Z,95048
2018-05-15T07:14:46.959Z,95049
2018-05-15T07:20:15.096Z,95057
2018-05-15T07:25:43.275Z,95068
2018-05-15T07:31:11.446Z,95056
2018-05-15T07:36:39.641Z,95067
2018-05-15T07:42:07.824Z,95066
2018-05-15T07:47:35.967Z,95071
2018-05-15T07:53:04.152Z,95077
2018-05-15T07:58:33.098Z,95076
2018-05-15T08:04:01.241Z,95073
2018-05-15T08:09:29.401Z,95077
2018-05-15T08:14:57.728Z,95074
2018-05-15T08:20:25.898Z,95078
2018-05-15T08:25:54.062Z,95081
2018-05-15T08:31:22.210Z,95070
2018-05-15T08:36:51.132Z,95086
2018-05-15T08:42:19.256Z,95088
2018-05-15T08:47:47.403Z,95099
2018-05-15T08:53:15.553Z,95094
2018-05-15T08:58:43.687Z,95094
2018-05-15T09:04:11.839Z,95081
2018-05-15T09:09:40.750Z,95091
2018-05-15T09:15:08.952Z,95100
2018-05-15T09:20:37.136Z,95095
2018-05-15T09:26:06.123Z,95103
2018-05-15T09:31:34.307Z,95099
2018-05-15T09:37:02.472Z,95107
2018-05-15T09:42:30.617Z,95096
2018-05-15T09:47:59.530Z,95099
2018-05-15T09:53:27.673Z,95097
2018-05-15T09:58:55.829Z,95092
2018-05-15T10:04:23.987Z,95085
2018-05-15T10:09:52.125Z,95102
2018-05-15T10:15:20.269Z,95116
2018-05-15T10:20:49.174Z,95118
2018-05-15T10:26:17.323Z,95123
2018-05-15T10:31:45.471Z,95124
2018-05-15T10:37:13.701Z,95123
2018-05-15T10:42:41.771Z,95126
2018-05-15T10:48:09.942Z,95116
2018-05-15T10:53:38.106Z,95112
2018-05-15T10:59:06.297Z,95107
2018-05-15T11:04:34.504Z,95104
2018-05-15T11:10:02.995Z,95103
2018-05-15T11:15:31.168Z,95104
2018-05-15T11:21:17.271Z,95100
2018-05-15T11:26:45.408Z,95097
2018-05-15T11:32:13.554Z,95095
2018-05-15T11:37:41.714Z,95089
2018-05-15T11:43:10.640Z,95082
2018-05-15T11:48:39.174Z,95090
2018-05-15T11:54:07.001Z,95089
2018-05-15T11:59:35.184Z,95093
2018-05-15T12:05:03.352Z,95092
2018-05-15T12:10:31.553Z,95086
2018-05-15T12:15:59.668Z,95083
2018-05-15T12:21:28.576Z,95092
2018-05-15T12:26:56.737Z,95103
2018-05-15T12:32:25.670Z,95105
2018-05-15T12:37:54.580Z,95134
2018-05-15T12:43:22.720Z,95140
2018-05-15T12:48:51.669Z,95143
2018-05-15T12:54:19.793Z,95144
2018-05-15T12:59:47.942Z,95143
2018-05-15T13:05:16.094Z,95138
2018-05-15T13:10:44.237Z,95149
2018-05-15T13:16:13.148Z,95139
2018-05-15T13:21:41.293Z,95127
2018-05-15T13:27:10.197Z,95122
2018-05-15T13:32:38.350Z,95118
2018-05-15T13:38:07.259Z,95109
2018-05-15T13:43:35.458Z,95113
2018-05-15T13:49:03.653Z,95108
2018-05-15T13:54:32.304Z,95107
2018-05-15T14:00:00.458Z,95112
2018-05-15T14:05:28.608Z,95100
2018-05-15T14:10:57.503Z,95105
2018-05-15T14:16:25.647Z,95106
2018-05-15T14:21:53.793Z,95103
2018-05-15T14:27:21.949Z,95114
2018-05-15T14:32:50.113Z,95096
2018-05-15T14:38:19.034Z,95089
2018-05-15T14:43:47.172Z,95084
2018-05-15T14:49:16.074Z,95075
2018-05-15T14:54:44.230Z,95055
2018-05-15T15:00:13.141Z,95078
2018-05-15T15:05:41.324Z,95077
2018-05-15T15:11:09.519Z,95071
2018-05-15T15:16:37.672Z,95080
2018-05-15T15:22:05.858Z,95067
2018-05-15T15:27:34.006Z,95064
2018-05-15T15:33:02.198Z,95066
2018-05-15T15:38:30.346Z,95054
2018-05-15T15:43:58.480Z,95052
2018-05-15T15:49:26.638Z,95050
2018-05-15T15:54:55.536Z,95061
2018-05-15T16:00:23.659Z,95066
2018-05-15T16:05:51.835Z,95070
2018-05-15T16:11:19.997Z,95073
2018-05-15T16:16:48.137Z,95071
2018-05-15T16:22:16.287Z,95069
2018-05-15T16:27:44.446Z,95066
2018-05-15T16:33:12.616Z,95070
2018-05-15T16:38:46.157Z,95072
2018-05-15T16:44:15.077Z,95084
2018-05-15T16:49:44.131Z,95086
2018-05-15T16:55:13.047Z,95085
2018-05-15T17:00:41.237Z,95081
2018-05-15T17:06:09.356Z,95097
2018-05-15T17:11:37.557Z,95082
2018-05-15T17:17:05.851Z,95088
2018-05-15T17:22:34.862Z,95096
2018-05-15T17:28:03.125Z,95121
2018-05-15T17:33:32.079Z,95166
2018-05-15T17:39:00.252Z,95169
2018-05-15T17:44:28.406Z,95183
2018-05-15T17:49:57.318Z,95202
2018-05-15T17:55:27.398Z,95191
2018-05-15T18:00:56.303Z,95197
2018-05-15T18:06:24.456Z,95208
2018-05-15T18:11:53.384Z,95194
2018-05-15T18:17:21.550Z,95196
2018-05-15T18:22:49.716Z,95214
2018-05-15T18:28:17.856Z,95219
2018-05-15T18:33:46.834Z,95236
2018-05-15T18:39:16.413Z,95215
2018-05-15T18:44:44.541Z,95173
2018-05-15T18:50:12.825Z,95155
2018-05-15T18:55:41.131Z,95162
2018-05-15T19:01:09.391Z,95167
2018-05-15T19:06:37.585Z,95165
2018-05-15T19:12:06.828Z,95178
2018-05-15T19:17:35.179Z,95191
2018-05-15T19:23:03.555Z,95181
2018-05-15T19:28:32.531Z,95173
2018-05-15T19:34:00.723Z,95173
2018-05-15T19:39:33.824Z,95180
2018-05-15T19:45:02.767Z,95185
2018-05-15T19:50:31.001Z,95188
2018-05-15T19:55:59.937Z,95191
2018-05-15T20:01:28.061Z,95204
2018-05-15T20:06:56.992Z,95221
2018-05-15T20:12:25.936Z,95223
2018-05-15T20:17:54.893Z,95211
2018-05-15T20:23:24.072Z,95215
2018-05-15T20:28:52.205Z,95218
2018-05-15T20:34:20.369Z,95216
2018-05-15T20:39:49.380Z,95215
2018-05-15T20:45:17.528Z,95218
2018-05-15T20:50:46.489Z,95220
2018-05-15T20:56:14.698Z,95223
2018-05-15T21:01:42.856Z,95217
2018-05-15T21:07:11.043Z,95221
2018-05-15T21:12:39.207Z,95222
2018-05-15T21:18:07.494Z,95222
2018-05-15T21:23:35.588Z,95212
2018-05-15T21:29:04.603Z,95213
2018-05-15T21:34:32.799Z,95209
2018-05-15T21:40:00.980Z,95207
2018-05-15T21:45:29.130Z,95210
2018-05-15T21:50:57.306Z,95210
2018-05-15T21:56:26.236Z,95217
2018-05-15T22:01:55.124Z,95229
2018-05-15T22:07:23.264Z,95222
2018-05-15T22:13:09.411Z,95230
2018-05-15T22:18:56.445Z,95234
2018-05-15T22:24:31.584Z,95239
2018-05-15T22:30:00.502Z,95235
2018-05-15T22:35:28.656Z,95228
2018-05-15T22:40:56.808Z,95237
2018-05-15T22:46:24.964Z,95232
2018-05-15T22:51:53.115Z,95231
2018-05-15T22:57:21.297Z,95233
2018-05-15T23:02:49.439Z,95235
2018-05-15T23:08:18.352Z,95221
2018-05-15T23:13:46.506Z,95227
2018-05-15T23:19:15.419Z,95238
2018-05-15T23:24:43.560Z,95232
2018-05-15T23:30:12.517Z,95227
2018-05-15T23:35:40.670Z,95216
2018-05-15T23:41:08.836Z,95226
2018-05-15T23:46:37.778Z,95223
2018-05-15T23:52:06.721Z,95217
2018-05-15T23:57:34.909Z,95223
